| time (UTC) | temp C | wind direction | speed KPH | gust KPH | rain 1hr cm | rain 24hr cm | rain mn cm | humidity % | barometer mb |
| 20260503211318 | 28 | 23 | 0.0 | 9.7 | 0.00 | 0.00 | 0.00 | 46 | 1009.7 |
| 20260503210828 | 28 | 26 | 0.0 | 9.7 | 0.00 | 0.00 | 0.00 | 44 | 1009.7 |
| 20260503210318 | 28 | 36 | 0.0 | 3.2 | 0.00 | 0.00 | 0.00 | 50 | 1009.7 |
| 20260503205826 | 28 | 5 | 0.0 | 1.6 | 0.00 | 0.00 | 0.00 | 44 | 1009.8 |
| 20260503205317 | 28 | 42 | 0.0 | 1.6 | 0.00 | 0.00 | 0.00 | 44 | 1009.9 |
| 20260503204831 | 28 | 348 | 0.0 | 3.2 | 0.00 | 0.00 | 0.00 | 49 | 1009.9 |
| 20260503204322 | 27 | 42 | 0.0 | 11.3 | 0.00 | 0.00 | 0.00 | 45 | 1009.9 |
| 20260503203812 | 27 | 67 | 0.0 | 6.4 | 0.00 | 0.00 | 0.00 | 50 | 1010.1 |
| 20260503203321 | 27 | 34 | 0.0 | 3.2 | 0.00 | 0.00 | 0.00 | 49 | 1010.1 |
| 20260503202852 | 27 | 30 | 0.0 | 8.0 | 0.00 | 0.00 | 0.00 | 51 | 1010.2 |
| 20260503202320 | 27 | 345 | 1.6 | 9.7 | 0.00 | 0.00 | 0.00 | 48 | 1010.2 |
| 20260503201828 | 27 | 355 | 0.0 | 11.3 | 0.00 | 0.00 | 0.00 | 47 | 1010.2 |
| 20260503201318 | 27 | 339 | 0.0 | 8.0 | 0.00 | 0.00 | 0.00 | 49 | 1010.4 |
| 20260503200826 | 27 | 5 | 0.0 | 8.0 | 0.00 | 0.00 | 0.00 | 48 | 1010.4 |
| 20260503200319 | 27 | 13 | 0.0 | 1.6 | 0.00 | 0.00 | 0.00 | 50 | 1010.5 |
| 20260503195829 | 26 | 9 | 0.0 | 8.0 | 0.00 | 0.00 | 0.00 | 52 | 1010.6 |
| 20260503195320 | 26 | 5 | 0.0 | 8.0 | 0.00 | 0.00 | 0.00 | 51 | 1010.7 |
| 20260503194830 | 26 | 323 | 0.0 | 6.4 | 0.00 | 0.00 | 0.00 | 49 | 1010.7 |
| 20260503194320 | 26 | 14 | 0.0 | 14.5 | 0.00 | 0.00 | 0.00 | 55 | 1010.8 |
| 20260503193830 | 26 | 360 | 1.6 | 14.5 | 0.00 | 0.00 | 0.00 | 52 | 1010.8 |
| 20260503193320 | 26 | 360 | 0.0 | 9.7 | 0.00 | 0.00 | 0.00 | 55 | 1010.9 |
| 20260503192831 | 26 | 335 | 0.0 | 3.2 | 0.00 | 0.00 | 0.00 | 53 | 1011.0 |
| 20260503192322 | 26 | 13 | 0.0 | 11.3 | 0.00 | 0.00 | 0.00 | 54 | 1011.0 |
| 20260503191816 | 25 | 330 | 1.6 | 11.3 | 0.00 | 0.00 | 0.00 | 53 | 1011.1 |
| 20260503191325 | 25 | 326 | 0.0 | 8.0 | 0.00 | 0.00 | 0.00 | 55 | 1011.2 |
| 20260503190814 | 25 | 13 | 0.0 | 9.7 | 0.00 | 0.00 | 0.00 | 59 | 1011.2 |
| 20260503190324 | 25 | 13 | 0.0 | 8.0 | 0.00 | 0.00 | 0.00 | 58 | 1011.4 |
| 20260503185814 | 25 | 326 | 0.0 | 1.6 | 0.00 | 0.00 | 0.00 | 57 | 1011.4 |
| 20260503185345 | 25 | 57 | 0.0 | 1.6 | 0.00 | 0.00 | 0.00 | 57 | 1011.4 |
| 20260503184814 | 25 | 38 | 0.0 | 1.6 | 0.00 | 0.00 | 0.00 | 58 | 1011.4 |
| 20260503184345 | 25 | 323 | 0.0 | 0.0 | 0.00 | 0.00 | 0.00 | 56 | 1011.4 |
| 20260503183814 | 25 | 355 | 0.0 | 1.6 | 0.00 | 0.00 | 0.00 | 57 | 1011.6 |
| 20260503183324 | 24 | 63 | 0.0 | 1.6 | 0.00 | 0.00 | 0.00 | 60 | 1011.7 |
| 20260503182819 | 24 | 310 | 0.0 | 0.0 | 0.00 | 0.00 | 0.00 | 61 | 1011.7 |
| 20260503182330 | 23 | 345 | 0.0 | 1.6 | 0.00 | 0.00 | 0.00 | 60 | 1011.6 |
| 20260503181819 | 23 | 331 | 0.0 | 1.6 | 0.00 | 0.00 | 0.00 | 57 | 1011.7 |
| 20260503181350 | 23 | 317 | 0.0 | 0.0 | 0.00 | 0.00 | 0.00 | 61 | 1011.8 |
| 20260503180818 | 23 | 5 | 0.0 | 0.0 | 0.00 | 0.00 | 0.00 | 62 | 1011.8 |
| 20260503180327 | 22 | 19 | 0.0 | 0.0 | 0.00 | 0.00 | 0.00 | 62 | 1011.9 |
| 20260503175816 | 22 | 234 | 0.0 | 0.0 | 0.00 | 0.00 | 0.00 | 65 | 1011.9 |
| 20260503175326 | 22 | 234 | 0.0 | 0.0 | 0.00 | 0.00 | 0.00 | 65 | 1011.9 |
| 20260503174815 | 22 | 233 | 0.0 | 0.0 | 0.00 | 0.00 | 0.00 | 68 | 1012.0 |
| 20260503174325 | 22 | 223 | 0.0 | 0.0 | 0.00 | 0.00 | 0.00 | 69 | 1012.1 |
| 20260503173814 | 21 | 215 | 0.0 | 0.0 | 0.00 | 0.00 | 0.00 | 70 | 1012.0 |
| 20260503173324 | 21 | 176 | 0.0 | 0.0 | 0.00 | 0.00 | 0.00 | 71 | 1012.1 |
| 20260503172832 | 20 | 211 | 0.0 | 0.0 | 0.00 | 0.00 | 0.00 | 71 | 1012.2 |
| 20260503172341 | 20 | 245 | 0.0 | 0.0 | 0.00 | 0.00 | 0.00 | 71 | 1012.2 |
| 20260503171813 | 20 | 226 | 0.0 | 0.0 | 0.00 | 0.00 | 0.00 | 72 | 1012.2 |
| 20260503171324 | 20 | 198 | 0.0 | 0.0 | 0.00 | 0.00 | 0.00 | 71 | 1012.3 |
| 20260503170815 | 19 | 202 | 0.0 | 0.0 | 0.00 | 0.00 | 0.00 | 73 | 1012.3 |
| 20260503170325 | 19 | 234 | 0.0 | 0.0 | 0.00 | 0.00 | 0.00 | 73 | 1012.3 |
| 20260503150850 | 11 | 63 | 0.0 | 0.0 | 0.00 | 0.00 | 0.00 | 97 | 1013.0 |
| 20260503150324 | 11 | 63 | 0.0 | 0.0 | 0.00 | 0.00 | 0.00 | 97 | 1013.0 |
| 20260503131331 | 6 | 63 | 0.0 | 0.0 | 0.00 | 0.00 | 0.00 | 96 | 1012.7 |
| 20260503130820 | 6 | 63 | 0.0 | 0.0 | 0.00 | 0.00 | 0.00 | 95 | 1012.7 |
| 20260503130330 | 6 | 63 | 0.0 | 0.0 | 0.00 | 0.00 | 0.00 | 95 | 1012.7 |
| 20260503110822 | 8 | 63 | 0.0 | 0.0 | 0.00 | 0.00 | 0.00 | 94 | 1012.9 |
| 20260503110315 | 8 | 63 | 0.0 | 0.0 | 0.00 | 0.00 | 0.00 | 94 | 1013.0 |
| 20260503090324 | 10 | 63 | 0.0 | 0.0 | 0.00 | 0.00 | 0.00 | 92 | 1013.1 |
| 20260503081327 | 11 | 96 | 0.0 | 0.0 | 0.00 | 0.00 | 0.00 | 91 | 1013.1 |
| 20260503080817 | 11 | 96 | 0.0 | 0.0 | 0.00 | 0.00 | 0.00 | 90 | 1013.0 |
| 20260503080347 | 11 | 96 | 0.0 | 0.0 | 0.00 | 0.00 | 0.00 | 89 | 1012.9 |
| 20260503072840 | 12 | 38 | 0.0 | 0.0 | 0.00 | 0.00 | 0.00 | 86 | 1012.9 |
| 20260503072330 | 13 | 69 | 0.0 | 0.0 | 0.00 | 0.00 | 0.00 | 85 | 1012.9 |
| 20260503071818 | 13 | 69 | 0.0 | 0.0 | 0.00 | 0.00 | 0.00 | 86 | 1012.9 |
| 20260503071328 | 13 | 69 | 0.0 | 0.0 | 0.00 | 0.00 | 0.00 | 86 | 1012.9 |
| 20260503070818 | 13 | 69 | 0.0 | 0.0 | 0.00 | 0.00 | 0.00 | 86 | 1012.9 |
| 20260503070326 | 13 | 71 | 0.0 | 0.0 | 0.00 | 0.00 | 0.00 | 85 | 1013.0 |
| 20260503060330 | 14 | 28 | 0.0 | 0.0 | 0.00 | 0.00 | 0.00 | 82 | 1012.8 |
| 20260503054818 | 15 | 28 | 0.0 | 0.0 | 0.00 | 0.00 | 0.00 | 77 | 1012.8 |
| 20260503054312 | 15 | 28 | 0.0 | 0.0 | 0.00 | 0.00 | 0.00 | 77 | 1012.7 |
| 20260503053822 | 16 | 28 | 0.0 | 0.0 | 0.00 | 0.00 | 0.00 | 76 | 1012.8 |
| 20260503053313 | 15 | 42 | 0.0 | 0.0 | 0.00 | 0.00 | 0.00 | 77 | 1012.8 |
| 20260503052845 | 15 | 245 | 0.0 | 0.0 | 0.00 | 0.00 | 0.00 | 78 | 1012.8 |
| 20260503052314 | 15 | 245 | 0.0 | 0.0 | 0.00 | 0.00 | 0.00 | 79 | 1012.8 |
| 20260503051824 | 15 | 245 | 0.0 | 0.0 | 0.00 | 0.00 | 0.00 | 80 | 1012.7 |
| 20260503051314 | 14 | 245 | 0.0 | 0.0 | 0.00 | 0.00 | 0.00 | 81 | 1012.7 |
| 20260503050824 | 14 | 245 | 0.0 | 0.0 | 0.00 | 0.00 | 0.00 | 81 | 1012.7 |
| 20260503050314 | 15 | 245 | 0.0 | 0.0 | 0.00 | 0.00 | 0.00 | 81 | 1012.6 |
| 20260503045825 | 15 | 245 | 0.0 | 0.0 | 0.00 | 0.00 | 0.00 | 80 | 1012.7 |
| 20260503045318 | 15 | 245 | 0.0 | 0.0 | 0.00 | 0.00 | 0.00 | 80 | 1012.6 |
| 20260503044828 | 15 | 245 | 0.0 | 0.0 | 0.00 | 0.00 | 0.00 | 79 | 1012.6 |
| 20260503044339 | 15 | 245 | 0.0 | 0.0 | 0.00 | 0.00 | 0.00 | 78 | 1012.5 |
| 20260503043849 | 15 | 245 | 0.0 | 0.0 | 0.00 | 0.00 | 0.00 | 79 | 1012.4 |
| 20260503043339 | 16 | 245 | 0.0 | 0.0 | 0.00 | 0.00 | 0.00 | 77 | 1012.3 |
| 20260503042829 | 16 | 245 | 0.0 | 0.0 | 0.00 | 0.00 | 0.00 | 77 | 1012.2 |
| 20260503042320 | 16 | 245 | 0.0 | 0.0 | 0.00 | 0.00 | 0.00 | 76 | 1012.2 |
| 20260503041831 | 16 | 245 | 0.0 | 0.0 | 0.00 | 0.00 | 0.00 | 76 | 1012.1 |
| 20260503041321 | 16 | 245 | 0.0 | 0.0 | 0.00 | 0.00 | 0.00 | 77 | 1012.0 |
| 20260503040811 | 16 | 245 | 0.0 | 0.0 | 0.00 | 0.00 | 0.00 | 76 | 1011.9 |
| 20260503040326 | 17 | 245 | 0.0 | 0.0 | 0.00 | 0.00 | 0.00 | 76 | 1011.8 |
| 20260503035815 | 17 | 245 | 0.0 | 0.0 | 0.00 | 0.00 | 0.00 | 74 | 1011.7 |
| 20260503035346 | 17 | 245 | 0.0 | 0.0 | 0.00 | 0.00 | 0.00 | 73 | 1011.6 |
| 20260503034815 | 17 | 245 | 0.0 | 0.0 | 0.00 | 0.00 | 0.00 | 72 | 1011.5 |
| 20260503034346 | 17 | 245 | 0.0 | 0.0 | 0.00 | 0.00 | 0.00 | 71 | 1011.4 |
| 20260503033815 | 18 | 245 | 0.0 | 0.0 | 0.00 | 0.00 | 0.00 | 69 | 1011.3 |
| 20260503033326 | 18 | 245 | 0.0 | 0.0 | 0.00 | 0.00 | 0.00 | 66 | 1011.2 |
| 20260503032815 | 19 | 315 | 0.0 | 0.0 | 0.00 | 0.00 | 0.00 | 64 | 1011.2 |
| 20260503032326 | 20 | 315 | 0.0 | 0.0 | 0.00 | 0.00 | 0.00 | 63 | 1011.2 |
| 20260503031815 | 20 | 315 | 0.0 | 0.0 | 0.00 | 0.00 | 0.00 | 61 | 1011.1 |
| 20260503031329 | 21 | 315 | 0.0 | 0.0 | 0.00 | 0.00 | 0.00 | 59 | 1011.1 |
| 20260503030819 | 21 | 321 | 0.0 | 0.0 | 0.00 | 0.00 | 0.00 | 58 | 1010.9 |
| 20260503030350 | 21 | 321 | 0.0 | 0.0 | 0.00 | 0.00 | 0.00 | 57 | 1010.9 |
| 20260503025820 | 21 | 322 | 0.0 | 0.0 | 0.00 | 0.00 | 0.00 | 57 | 1010.8 |
| 20260503025350 | 22 | 355 | 0.0 | 0.0 | 0.00 | 0.00 | 0.00 | 56 | 1010.8 |
| 20260503024821 | 22 | 333 | 0.0 | 0.0 | 0.00 | 0.00 | 0.00 | 57 | 1010.8 |
| 20260503024311 | 22 | 346 | 0.0 | 0.0 | 0.00 | 0.00 | 0.00 | 55 | 1010.8 |
| 20260503023823 | 22 | 344 | 0.0 | 0.0 | 0.00 | 0.00 | 0.00 | 55 | 1010.8 |
| 20260503023334 | 23 | 306 | 0.0 | 0.0 | 0.00 | 0.00 | 0.00 | 55 | 1010.7 |
| 20260503022823 | 23 | 343 | 0.0 | 0.0 | 0.00 | 0.00 | 0.00 | 54 | 1010.7 |
| 20260503022317 | 23 | 11 | 0.0 | 0.0 | 0.00 | 0.00 | 0.00 | 54 | 1010.7 |
| 20260503021828 | 23 | 21 | 0.0 | 0.0 | 0.00 | 0.00 | 0.00 | 54 | 1010.7 |
| 20260503021338 | 23 | 22 | 0.0 | 1.6 | 0.00 | 0.00 | 0.00 | 53 | 1010.7 |
| 20260503020828 | 23 | 42 | 0.0 | 0.0 | 0.00 | 0.00 | 0.00 | 53 | 1010.7 |
| 20260503020319 | 23 | 14 | 0.0 | 0.0 | 0.00 | 0.00 | 0.00 | 52 | 1010.7 |
| 20260503015830 | 23 | 43 | 0.0 | 0.0 | 0.00 | 0.00 | 0.00 | 52 | 1010.7 |
| 20260503015320 | 23 | 31 | 0.0 | 1.6 | 0.00 | 0.00 | 0.00 | 54 | 1010.6 |
| 20260503014831 | 23 | 21 | 0.0 | 1.6 | 0.00 | 0.00 | 0.00 | 53 | 1010.6 |
| 20260503014321 | 24 | 20 | 0.0 | 1.6 | 0.00 | 0.00 | 0.00 | 53 | 1010.6 |
| 20260503013828 | 24 | 63 | 0.0 | 0.0 | 0.00 | 0.00 | 0.00 | 51 | 1010.6 |
| 20260503013322 | 24 | 14 | 0.0 | 1.6 | 0.00 | 0.00 | 0.00 | 53 | 1010.6 |
| 20260503012852 | 24 | 65 | 0.0 | 3.2 | 0.00 | 0.00 | 0.00 | 53 | 1010.7 |
| 20260503012322 | 24 | 350 | 0.0 | 3.2 | 0.00 | 0.00 | 0.00 | 53 | 1010.7 |
| 20260503011812 | 24 | 5 | 0.0 | 9.7 | 0.00 | 0.00 | 0.00 | 52 | 1010.7 |
| 20260503011321 | 24 | 33 | 1.6 | 9.7 | 0.00 | 0.00 | 0.00 | 52 | 1010.7 |
| 20260503010832 | 24 | 5 | 0.0 | 8.0 | 0.00 | 0.00 | 0.00 | 52 | 1010.7 |
| 20260503010320 | 24 | 355 | 0.0 | 11.3 | 0.00 | 0.00 | 0.00 | 52 | 1010.7 |
| 20260503005831 | 24 | 10 | 1.6 | 12.9 | 0.00 | 0.00 | 0.00 | 51 | 1010.7 |
| 20260503005320 | 24 | 5 | 0.0 | 12.9 | 0.00 | 0.00 | 0.00 | 52 | 1010.8 |
| 20260503004811 | 24 | 46 | 0.0 | 12.9 | 0.00 | 0.00 | 0.00 | 51 | 1010.8 |
| 20260503004325 | 24 | 5 | 1.6 | 12.9 | 0.00 | 0.00 | 0.00 | 51 | 1010.8 |
| 20260503003815 | 24 | 5 | 1.6 | 12.9 | 0.00 | 0.00 | 0.00 | 51 | 1010.9 |
| 20260503003323 | 24 | 351 | 0.0 | 6.4 | 0.00 | 0.00 | 0.00 | 54 | 1010.9 |
| 20260503002813 | 25 | 355 | 0.0 | 6.4 | 0.00 | 0.00 | 0.00 | 52 | 1010.8 |
| 20260503002324 | 25 | 346 | 0.0 | 0.0 | 0.00 | 0.00 | 0.00 | 51 | 1010.8 |
| 20260503001815 | 25 | 39 | 0.0 | 16.1 | 0.00 | 0.00 | 0.00 | 53 | 1010.8 |
| 20260503001324 | 24 | 32 | 1.6 | 16.1 | 0.00 | 0.00 | 0.00 | 53 | 1010.9 |
| 20260503000814 | 24 | 345 | 3.2 | 9.7 | 0.00 | 0.00 | 0.00 | 50 | 1010.8 |
| 20260503000323 | 24 | 63 | 0.0 | 12.9 | 0.00 | 0.00 | 0.00 | 55 | 1010.9 |
| 20260502235817 | 24 | 28 | 0.0 | 20.9 | 0.00 | 0.00 | 0.00 | 51 | 1011.0 |
| 20260502235328 | 24 | 342 | 8.0 | 20.9 | 0.00 | 0.00 | 0.00 | 51 | 1011.0 |
| 20260502234814 | 24 | 11 | 1.6 | 16.1 | 0.00 | 0.00 | 0.00 | 55 | 1011.0 |
| 20260502234324 | 24 | 360 | 1.6 | 12.9 | 0.00 | 0.00 | 0.00 | 56 | 1011.1 |
| 20260502233814 | 24 | 355 | 1.6 | 16.1 | 0.00 | 0.00 | 0.00 | 54 | 1011.1 |
| 20260502233324 | 24 | 5 | 3.2 | 16.1 | 0.00 | 0.00 | 0.00 | 53 | 1011.2 |
| 20260502232814 | 24 | 355 | 1.6 | 9.7 | 0.00 | 0.00 | 0.00 | 52 | 1011.3 |
| 20260502232325 | 24 | 52 | 0.0 | 12.9 | 0.00 | 0.00 | 0.00 | 53 | 1011.4 |
| 20260502231816 | 24 | 11 | 1.6 | 12.9 | 0.00 | 0.00 | 0.00 | 52 | 1011.5 |
| 20260502231327 | 24 | 360 | 0.0 | 12.9 | 0.00 | 0.00 | 0.00 | 54 | 1011.5 |
| 20260502230820 | 24 | 355 | 1.6 | 12.9 | 0.00 | 0.00 | 0.00 | 57 | 1011.5 |
| 20260502230329 | 24 | 12 | 0.0 | 16.1 | 0.00 | 0.00 | 0.00 | 54 | 1011.6 |
| 20260502225819 | 24 | 24 | 1.6 | 16.1 | 0.00 | 0.00 | 0.00 | 58 | 1011.6 |
| 20260502225329 | 24 | 5 | 0.0 | 14.5 | 0.00 | 0.00 | 0.00 | 59 | 1011.7 |
| 20260502224818 | 23 | 80 | 1.6 | 17.7 | 0.00 | 0.00 | 0.00 | 55 | 1011.9 |
| 20260502224328 | 24 | 76 | 3.2 | 17.7 | 0.00 | 0.00 | 0.00 | 58 | 1011.9 |
| 20260502223821 | 23 | 32 | 0.0 | 16.1 | 0.00 | 0.00 | 0.00 | 58 | 1012.0 |
| 20260502223331 | 23 | 11 | 0.0 | 16.1 | 0.00 | 0.00 | 0.00 | 60 | 1012.1 |
| 20260502222820 | 23 | 355 | 3.2 | 14.5 | 0.00 | 0.00 | 0.00 | 57 | 1012.2 |
| 20260502222312 | 23 | 23 | 1.6 | 16.1 | 0.00 | 0.00 | 0.00 | 58 | 1012.3 |
| 20260502221821 | 23 | 32 | 1.6 | 16.1 | 0.00 | 0.00 | 0.00 | 59 | 1012.4 |
| 20260502221331 | 23 | 355 | 0.0 | 14.5 | 0.00 | 0.00 | 0.00 | 58 | 1012.4 |
| 20260502220821 | 23 | 351 | 4.8 | 14.5 | 0.00 | 0.00 | 0.00 | 58 | 1012.4 |
| 20260502220352 | 23 | 5 | 0.0 | 11.3 | 0.00 | 0.00 | 0.00 | 59 | 1012.5 |
| 20260502215821 | 23 | 14 | 3.2 | 11.3 | 0.00 | 0.00 | 0.00 | 59 | 1012.7 |
| 20260502215311 | 23 | 27 | 0.0 | 11.3 | 0.00 | 0.00 | 0.00 | 59 | 1012.7 |
| 20260502214822 | 23 | 355 | 0.0 | 11.3 | 0.00 | 0.00 | 0.00 | 60 | 1012.8 |
| 20260502214331 | 22 | 44 | 1.6 | 17.7 | 0.00 | 0.00 | 0.00 | 61 | 1012.8 |
| 20260502213825 | 22 | 50 | 3.2 | 19.3 | 0.00 | 0.00 | 0.00 | 59 | 1012.9 |
| 20260502213314 | 22 | 360 | 11.3 | 20.9 | 0.00 | 0.00 | 0.00 | 60 | 1012.8 |
| 20260502212845 | 22 | 5 | 9.7 | 24.1 | 0.00 | 0.00 | 0.00 | 59 | 1013.0 |
| 20260502212315 | 22 | 347 | 11.3 | 24.1 | 0.00 | 0.00 | 0.00 | 58 | 1013.0 |
| 20260502211826 | 22 | 76 | 8.0 | 19.3 | 0.00 | 0.00 | 0.00 | 60 | 1013.0 |